Time;durP1;ratioP1;P1;durP2;ratioP2;P2;SDS_P1;SDS_P2;PMS_P1;PMS_P2;Temp;Humidity;BMP_temperature;BMP_pressure;BME280_temperature;BME280_humidity;BME280_pressure;Samples;Min_cycle;Max_cycle;Signal;HPM_P1;HPM_P2
2023/12/14 00:00:14;;;;;;;10.70;5.85;;;6.30;99.90;;;;;;4841266;29;20038;-83
2023/12/14 00:02:40;;;;;;;9.20;3.50;;;6.30;99.90;;;;;;4833910;29;20102;-84
2023/12/14 00:05:06;;;;;;;8.48;3.40;;;6.20;99.90;;;;;;4834074;29;20485;-83
2023/12/14 00:07:32;;;;;;;13.57;4.43;;;6.30;99.90;;;;;;4836071;29;20068;-83
2023/12/14 00:09:57;;;;;;;11.50;3.45;;;6.30;99.90;;;;;;4837744;29;20516;-84
2023/12/14 00:12:23;;;;;;;6.25;3.40;;;6.30;99.90;;;;;;4840495;29;20030;-83
2023/12/14 00:14:49;;;;;;;6.72;3.05;;;6.30;99.90;;;;;;4842522;29;20037;-84
2023/12/14 00:17:14;;;;;;;7.38;3.00;;;6.20;99.90;;;;;;4839460;29;20672;-84
2023/12/14 00:19:40;;;;;;;9.55;3.33;;;6.10;99.90;;;;;;4846807;29;20030;-83
2023/12/14 00:22:05;;;;;;;9.15;3.00;;;6.10;99.90;;;;;;4844015;29;20045;-83
2023/12/14 00:24:31;;;;;;;5.72;2.67;;;6.00;99.90;;;;;;4843137;29;20619;-83
2023/12/14 00:26:57;;;;;;;4.65;2.47;;;6.00;99.90;;;;;;4844212;29;20137;-83
2023/12/14 00:29:22;;;;;;;9.85;3.20;;;5.90;99.90;;;;;;4842600;29;20038;-83
2023/12/14 00:31:48;;;;;;;8.27;2.88;;;6.00;99.90;;;;;;4840743;29;20152;-83
2023/12/14 00:34:14;;;;;;;7.60;2.92;;;5.90;99.90;;;;;;4835742;29;20053;-82
2023/12/14 00:36:39;;;;;;;9.68;2.95;;;6.00;99.90;;;;;;4838554;29;20037;-83
2023/12/14 00:39:05;;;;;;;8.25;3.22;;;5.90;99.90;;;;;;4840452;29;20688;-83
2023/12/14 00:41:31;;;;;;;9.40;3.40;;;5.90;99.90;;;;;;4838239;29;20046;-83
2023/12/14 00:43:56;;;;;;;8.95;3.33;;;6.00;99.90;;;;;;4835607;29;20122;-83
2023/12/14 00:46:22;;;;;;;9.23;3.17;;;5.90;99.90;;;;;;4842103;29;20041;-83
2023/12/14 00:48:47;;;;;;;11.02;2.95;;;5.90;99.90;;;;;;4840170;29;20052;-83
2023/12/14 00:51:13;;;;;;;9.10;2.83;;;5.80;99.90;;;;;;4839042;29;20498;-83
2023/12/14 00:53:39;;;;;;;7.53;2.70;;;5.90;99.90;;;;;;4838331;29;20038;-84
2023/12/14 00:56:06;;;;;;;5.03;2.63;;;5.90;99.90;;;;;;4837419;29;20140;-83
2023/12/14 00:58:32;;;;;;;5.90;2.80;;;5.80;99.90;;;;;;4845688;29;20043;-83
2023/12/14 01:00:58;;;;;;;9.07;2.92;;;5.90;99.90;;;;;;4836318;29;20038;-83
2023/12/14 01:03:23;;;;;;;16.33;3.03;;;5.80;99.90;;;;;;4837851;29;20058;-83
2023/12/14 01:05:49;;;;;;;7.70;3.00;;;5.80;99.90;;;;;;4835429;29;21760;-83
2023/12/14 01:08:14;;;;;;;9.38;3.10;;;5.80;99.90;;;;;;4838077;29;20049;-83
2023/12/14 01:10:40;;;;;;;7.80;2.53;;;5.70;99.90;;;;;;4832708;29;20042;-83
2023/12/14 01:13:06;;;;;;;6.88;2.60;;;5.60;99.90;;;;;;4840748;29;20061;-83
2023/12/14 01:15:31;;;;;;;8.10;3.00;;;5.50;99.90;;;;;;4841719;29;20170;-83
2023/12/14 01:17:57;;;;;;;7.43;3.00;;;5.40;99.90;;;;;;4839943;29;20029;-83
2023/12/14 01:20:23;;;;;;;7.50;2.80;;;5.40;99.90;;;;;;4840376;29;20391;-82
2023/12/14 01:22:48;;;;;;;7.40;2.92;;;5.40;99.90;;;;;;4849582;29;20037;-83
2023/12/14 01:25:14;;;;;;;13.25;3.40;;;5.40;99.90;;;;;;4859508;29;20042;-83
2023/12/14 01:27:40;;;;;;;5.35;2.47;;;5.40;99.90;;;;;;4853854;29;20033;-83
2023/12/14 01:30:06;;;;;;;9.25;3.78;;;5.40;99.90;;;;;;4858757;29;20061;-82
2023/12/14 01:32:32;;;;;;;7.35;3.03;;;5.40;99.90;;;;;;4845353;29;20494;-83
2023/12/14 01:34:57;;;;;;;6.55;3.10;;;5.40;99.90;;;;;;4839693;29;20040;-83
2023/12/14 01:37:23;;;;;;;7.68;3.40;;;5.40;99.90;;;;;;4837894;29;20044;-82
2023/12/14 01:39:49;;;;;;;9.10;3.55;;;5.50;99.90;;;;;;4835388;29;20128;-83
2023/12/14 01:42:14;;;;;;;13.75;3.60;;;5.50;99.90;;;;;;4837172;29;20038;-83
2023/12/14 01:44:40;;;;;;;8.70;3.58;;;5.40;99.90;;;;;;4839661;29;20128;-84
2023/12/14 01:47:05;;;;;;;6.75;3.10;;;5.40;99.90;;;;;;4838332;29;20085;-84
2023/12/14 01:49:31;;;;;;;9.57;3.65;;;5.40;99.90;;;;;;4838169;29;20038;-83
2023/12/14 01:51:57;;;;;;;7.80;3.25;;;5.40;99.90;;;;;;4838262;29;20576;-82
2023/12/14 01:54:22;;;;;;;9.65;3.30;;;5.40;99.90;;;;;;4838212;29;20169;-84
2023/12/14 01:56:48;;;;;;;8.05;3.42;;;5.40;99.90;;;;;;4841128;29;20038;-84
2023/12/14 01:59:13;;;;;;;9.05;3.25;;;5.40;99.90;;;;;;4837916;29;20530;-82
2023/12/14 02:01:43;;;;;;;7.40;3.40;;;5.40;99.90;;;;;;4842333;29;20037;-81
2023/12/14 02:04:09;;;;;;;5.85;2.53;;;5.40;99.90;;;;;;4840837;29;20516;-84
2023/12/14 02:06:35;;;;;;;9.82;2.85;;;5.40;99.90;;;;;;4840910;29;20045;-82
2023/12/14 02:09:01;;;;;;;9.25;3.17;;;5.30;99.90;;;;;;4840026;29;20026;-82
2023/12/14 02:11:27;;;;;;;12.27;3.45;;;5.40;99.90;;;;;;4839251;29;20080;-82
2023/12/14 02:13:53;;;;;;;8.73;3.03;;;5.50;99.90;;;;;;4843514;29;20466;-84
2023/12/14 02:16:18;;;;;;;6.90;3.15;;;5.30;99.90;;;;;;4836642;29;20033;-83
2023/12/14 02:18:45;;;;;;;5.53;3.50;;;5.30;99.90;;;;;;4838630;29;20073;-83
2023/12/14 02:21:11;;;;;;;7.25;3.25;;;5.30;99.90;;;;;;4839029;29;20030;-83
2023/12/14 02:23:44;;;;;;;12.50;3.78;;;5.30;99.90;;;;;;4842890;29;20038;-83
2023/12/14 02:26:09;;;;;;;6.80;3.00;;;5.30;99.90;;;;;;4837917;29;20041;-83
2023/12/14 02:28:35;;;;;;;10.55;3.30;;;5.30;99.90;;;;;;4844190;29;20035;-83
2023/12/14 02:31:00;;;;;;;8.10;3.42;;;5.30;99.90;;;;;;4837970;29;20067;-83
2023/12/14 02:33:26;;;;;;;9.27;3.08;;;5.30;99.90;;;;;;4842078;29;20353;-83
2023/12/14 02:35:52;;;;;;;12.05;3.55;;;5.30;99.90;;;;;;4836587;29;20049;-83
2023/12/14 02:38:17;;;;;;;7.28;3.22;;;5.30;99.90;;;;;;4840153;29;20093;-82
2023/12/14 02:40:43;;;;;;;8.57;3.05;;;5.20;99.90;;;;;;4841998;29;20029;-83
2023/12/14 02:43:09;;;;;;;7.45;2.92;;;5.20;99.90;;;;;;4841982;29;20417;-83
2023/12/14 02:45:34;;;;;;;8.73;2.40;;;5.30;99.90;;;;;;4833318;29;20653;-83
2023/12/14 02:48:00;;;;;;;8.23;3.05;;;5.30;99.90;;;;;;4838080;29;20073;-83
2023/12/14 02:50:25;;;;;;;7.32;2.88;;;5.30;99.90;;;;;;4837362;29;22396;-82
2023/12/14 02:52:51;;;;;;;9.30;2.90;;;5.30;99.90;;;;;;4835188;29;20038;-83
2023/12/14 02:55:16;;;;;;;7.28;2.58;;;5.30;99.90;;;;;;4837005;29;20063;-82
2023/12/14 02:57:42;;;;;;;5.47;2.50;;;5.20;99.90;;;;;;4838338;29;20082;-82
2023/12/14 03:00:08;;;;;;;9.55;2.67;;;5.20;99.90;;;;;;4834228;29;20029;-82
2023/12/14 03:02:34;;;;;;;7.22;2.97;;;5.20;99.90;;;;;;4832779;29;20029;-82
2023/12/14 03:05:00;;;;;;;11.30;3.05;;;5.20;99.90;;;;;;4837057;29;20060;-82
2023/12/14 03:07:25;;;;;;;6.45;2.55;;;5.20;99.90;;;;;;4841478;29;20052;-82
2023/12/14 03:09:51;;;;;;;8.23;2.40;;;5.10;99.90;;;;;;4841577;29;20506;-83
2023/12/14 03:12:16;;;;;;;6.43;2.22;;;5.10;99.90;;;;;;4844390;29;20038;-83
2023/12/14 03:14:42;;;;;;;9.13;2.60;;;5.10;99.90;;;;;;4837283;29;20021;-83
2023/12/14 03:17:12;;;;;;;9.40;2.20;;;5.10;99.90;;;;;;4831602;29;21607;-83
2023/12/14 03:19:39;;;;;;;6.68;2.40;;;5.00;99.90;;;;;;4838104;29;20060;-82
2023/12/14 03:22:05;;;;;;;5.63;2.20;;;4.90;99.90;;;;;;4840297;29;20057;-82
2023/12/14 03:24:31;;;;;;;9.30;2.55;;;4.80;99.90;;;;;;4835405;29;20145;-83
2023/12/14 03:26:56;;;;;;;7.13;2.22;;;4.70;99.90;;;;;;4833328;29;20097;-83
2023/12/14 03:29:22;;;;;;;5.95;2.30;;;4.60;99.90;;;;;;4855966;29;20037;-83
2023/12/14 03:31:48;;;;;;;6.85;2.10;;;4.50;99.90;;;;;;4857661;29;20037;-82
2023/12/14 03:34:13;;;;;;;5.13;2.08;;;4.40;99.90;;;;;;4858350;29;20407;-82
2023/12/14 03:36:39;;;;;;;4.32;2.45;;;4.40;99.90;;;;;;4856006;29;20298;-83
2023/12/14 03:39:05;;;;;;;7.88;2.40;;;4.40;99.90;;;;;;4841643;29;20512;-83
2023/12/14 03:41:32;;;;;;;9.63;2.75;;;4.40;99.90;;;;;;4843636;29;20030;-83
2023/12/14 03:43:58;;;;;;;7.07;2.40;;;4.30;99.90;;;;;;4840095;29;20042;-82
2023/12/14 03:46:23;;;;;;;4.30;2.22;;;4.20;99.90;;;;;;4840989;29;20672;-83
2023/12/14 03:48:49;;;;;;;8.43;3.00;;;4.20;99.90;;;;;;4840337;29;20101;-83
2023/12/14 03:51:18;;;;;;;8.02;2.38;;;4.30;99.90;;;;;;4839529;29;20502;-82
2023/12/14 03:53:44;;;;;;;7.20;2.40;;;4.20;99.90;;;;;;4836123;29;20068;-81
2023/12/14 03:56:10;;;;;;;4.85;2.15;;;4.20;99.90;;;;;;4838190;29;20112;-81
2023/12/14 03:58:36;;;;;;;5.78;2.35;;;4.10;99.90;;;;;;4835968;29;20041;-82
2023/12/14 04:01:01;;;;;;;4.07;2.10;;;4.00;99.90;;;;;;4837488;29;20402;-82
2023/12/14 04:03:27;;;;;;;4.60;2.17;;;4.00;99.90;;;;;;4841902;29;20531;-82
2023/12/14 04:05:53;;;;;;;7.32;2.85;;;3.90;99.90;;;;;;4838286;29;20057;-83
2023/12/14 04:08:18;;;;;;;8.00;2.30;;;3.90;99.90;;;;;;4836682;29;20118;-82
2023/12/14 04:10:44;;;;;;;5.65;2.30;;;3.90;99.90;;;;;;4836101;29;20443;-82
2023/12/14 04:13:10;;;;;;;5.47;2.38;;;3.90;99.90;;;;;;4843556;29;20034;-82
2023/12/14 04:15:35;;;;;;;7.00;2.25;;;3.80;99.90;;;;;;4836083;29;20030;-82
2023/12/14 04:18:01;;;;;;;7.22;2.20;;;3.80;99.90;;;;;;4836830;29;20236;-82
2023/12/14 04:20:26;;;;;;;9.05;2.55;;;3.70;99.90;;;;;;4839452;29;20033;-82
2023/12/14 04:22:52;;;;;;;7.15;2.58;;;3.60;99.90;;;;;;4839690;29;20069;-82
2023/12/14 04:25:18;;;;;;;5.07;2.30;;;3.60;99.90;;;;;;4834975;29;20049;-82
2023/12/14 04:27:44;;;;;;;6.47;2.60;;;3.50;99.90;;;;;;4837025;29;20045;-83
2023/12/14 04:30:10;;;;;;;8.88;2.10;;;3.60;99.90;;;;;;4837191;29;20282;-82
2023/12/14 04:32:37;;;;;;;7.35;2.83;;;3.60;99.90;;;;;;4840280;29;20169;-82
2023/12/14 04:35:04;;;;;;;9.40;2.50;;;3.60;99.90;;;;;;4839244;29;20034;-82
2023/12/14 04:37:30;;;;;;;6.78;2.88;;;3.60;99.90;;;;;;4839322;29;20026;-81
2023/12/14 04:39:57;;;;;;;7.55;3.00;;;3.70;99.90;;;;;;4844450;29;20049;-82
2023/12/14 04:42:23;;;;;;;7.63;3.17;;;3.60;99.90;;;;;;4843173;29;20037;-81
2023/12/14 04:44:48;;;;;;;7.85;3.10;;;3.70;99.90;;;;;;4843454;29;20049;-82
2023/12/14 04:47:14;;;;;;;7.80;2.80;;;3.70;99.90;;;;;;4840646;29;20060;-82
2023/12/14 04:49:40;;;;;;;7.65;3.10;;;3.70;99.90;;;;;;4846564;29;20229;-82
2023/12/14 04:52:06;;;;;;;8.18;3.08;;;3.70;99.90;;;;;;4842215;29;21411;-82
2023/12/14 04:54:35;;;;;;;11.57;3.00;;;3.80;99.90;;;;;;4836186;29;20655;-82
2023/12/14 04:57:01;;;;;;;5.35;2.60;;;3.80;99.90;;;;;;4836248;29;20045;-82
2023/12/14 04:59:26;;;;;;;11.45;2.92;;;4.00;99.90;;;;;;4844676;29;20037;-82
2023/12/14 05:01:52;;;;;;;10.73;4.38;;;3.90;99.90;;;;;;4846561;29;20463;-82
2023/12/14 05:04:17;;;;;;;8.15;2.72;;;4.00;99.90;;;;;;4839127;29;20538;-82
2023/12/14 05:06:43;;;;;;;5.07;2.97;;;3.90;99.90;;;;;;4841739;29;20112;-82
2023/12/14 05:09:11;;;;;;;5.57;2.95;;;3.90;99.90;;;;;;4839653;29;20272;-82
2023/12/14 05:11:39;;;;;;;6.68;3.03;;;3.90;99.90;;;;;;4839840;29;20041;-82
2023/12/14 05:14:04;;;;;;;14.35;3.47;;;4.00;99.90;;;;;;4839453;29;20404;-82
2023/12/14 05:16:30;;;;;;;10.88;3.15;;;3.90;99.90;;;;;;4837846;29;20037;-82
2023/12/14 05:18:57;;;;;;;10.82;3.40;;;3.90;99.90;;;;;;4844515;29;20049;-82
2023/12/14 05:21:22;;;;;;;7.82;2.65;;;4.00;99.90;;;;;;4843624;29;20049;-82
2023/12/14 05:23:48;;;;;;;8.40;3.15;;;4.00;99.90;;;;;;4836616;29;20030;-82
2023/12/14 05:26:14;;;;;;;10.48;3.78;;;4.00;99.90;;;;;;4841862;29;20124;-82
2023/12/14 05:28:40;;;;;;;6.30;2.63;;;4.20;99.90;;;;;;4836787;29;20820;-82
2023/12/14 05:31:06;;;;;;;9.48;2.90;;;4.30;99.90;;;;;;4836984;29;20624;-83
2023/12/14 05:33:33;;;;;;;11.73;3.35;;;4.30;99.90;;;;;;4850949;29;20129;-83
2023/12/14 05:35:59;;;;;;;5.90;2.83;;;4.20;99.90;;;;;;4861535;29;20025;-82
2023/12/14 05:38:25;;;;;;;9.57;3.20;;;4.20;99.90;;;;;;4862287;29;20041;-82
2023/12/14 05:40:51;;;;;;;5.75;2.85;;;4.30;99.90;;;;;;4861589;29;20037;-82
2023/12/14 05:43:16;;;;;;;8.00;3.58;;;4.40;99.90;;;;;;4843119;29;20040;-83
2023/12/14 05:45:42;;;;;;;8.65;3.22;;;4.40;99.90;;;;;;4839792;29;20518;-83
2023/12/14 05:48:08;;;;;;;9.32;3.03;;;4.40;99.90;;;;;;4838564;29;20252;-83
2023/12/14 05:50:33;;;;;;;8.85;3.53;;;4.30;99.90;;;;;;4841262;29;20061;-83
2023/12/14 05:52:59;;;;;;;7.85;3.70;;;4.30;99.90;;;;;;4841851;29;20203;-83
2023/12/14 05:55:24;;;;;;;9.18;3.35;;;4.30;99.90;;;;;;4840789;29;20093;-83
2023/12/14 05:57:50;;;;;;;8.77;2.97;;;4.20;99.90;;;;;;4839307;29;20037;-83
2023/12/14 06:00:18;;;;;;;8.35;3.00;;;4.10;99.90;;;;;;4834477;29;20072;-83
2023/12/14 06:02:43;;;;;;;8.65;2.95;;;4.10;99.90;;;;;;4839901;29;20030;-83
2023/12/14 06:05:09;;;;;;;7.80;2.95;;;4.00;99.90;;;;;;4838009;29;20057;-83
2023/12/14 06:07:35;;;;;;;9.13;2.95;;;3.90;99.90;;;;;;4838315;29;20040;-83
2023/12/14 06:10:01;;;;;;;7.97;2.92;;;3.90;99.90;;;;;;4836081;29;20034;-84
2023/12/14 06:12:27;;;;;;;13.13;3.97;;;3.80;99.90;;;;;;4840432;29;20041;-83
2023/12/14 06:14:52;;;;;;;11.70;3.42;;;3.80;99.90;;;;;;4837930;29;20159;-83
2023/12/14 06:17:18;;;;;;;6.35;3.40;;;3.80;99.90;;;;;;4836955;29;20503;-83
2023/12/14 06:19:44;;;;;;;8.85;3.17;;;3.80;99.90;;;;;;4838528;29;20029;-83
2023/12/14 06:22:09;;;;;;;7.30;3.78;;;3.80;99.90;;;;;;4838776;29;20065;-84
2023/12/14 06:24:35;;;;;;;7.28;3.30;;;3.80;99.90;;;;;;4838119;29;20495;-82
2023/12/14 06:27:00;;;;;;;7.88;3.40;;;3.80;99.90;;;;;;4843068;29;20114;-83
2023/12/14 06:29:26;;;;;;;9.35;3.20;;;3.90;99.90;;;;;;4835374;29;20102;-84
2023/12/14 06:31:52;;;;;;;7.97;3.20;;;3.90;99.90;;;;;;4836336;29;20323;-83
2023/12/14 06:34:18;;;;;;;6.20;3.20;;;3.90;99.90;;;;;;4838656;29;20090;-84
2023/12/14 06:36:45;;;;;;;12.45;4.00;;;4.00;99.90;;;;;;4836910;29;20116;-84
2023/12/14 06:39:11;;;;;;;9.93;3.33;;;4.10;99.90;;;;;;4841654;29;20030;-84
2023/12/14 06:41:37;;;;;;;5.57;2.50;;;4.10;99.90;;;;;;4841672;29;20517;-84
2023/12/14 06:44:03;;;;;;;12.77;5.00;;;4.20;99.90;;;;;;4838568;29;20065;-84
2023/12/14 06:46:29;;;;;;;11.77;3.50;;;4.10;99.90;;;;;;4837185;29;20124;-84
2023/12/14 06:48:55;;;;;;;13.35;3.75;;;4.10;99.90;;;;;;4836802;29;20034;-84
2023/12/14 06:51:21;;;;;;;9.57;3.17;;;4.00;99.90;;;;;;4843557;29;20041;-85
2023/12/14 06:53:47;;;;;;;8.57;3.92;;;4.10;99.90;;;;;;4843237;29;20025;-84
2023/12/14 06:56:13;;;;;;;7.05;3.47;;;4.00;99.90;;;;;;4840966;29;20038;-84
2023/12/14 06:58:42;;;;;;;8.40;4.05;;;4.10;99.90;;;;;;4841092;29;20041;-83
2023/12/14 07:01:12;;;;;;;7.93;3.65;;;4.10;99.90;;;;;;4831010;29;20033;-84
2023/12/14 07:03:44;;;;;;;8.88;3.45;;;4.10;99.90;;;;;;4838832;29;20045;-84
2023/12/14 07:06:14;;;;;;;11.40;3.95;;;4.20;99.90;;;;;;4840347;29;20050;-84
2023/12/14 07:08:40;;;;;;;9.15;3.13;;;4.20;99.90;;;;;;4833309;29;20041;-84
2023/12/14 07:11:08;;;;;;;10.20;3.15;;;4.30;99.90;;;;;;4836845;29;20037;-84
2023/12/14 07:13:36;;;;;;;10.45;3.22;;;4.30;99.90;;;;;;4836984;29;20037;-84
2023/12/14 07:16:05;;;;;;;6.90;3.22;;;4.30;99.90;;;;;;4834215;29;20755;-84
2023/12/14 07:18:30;;;;;;;6.60;2.83;;;4.40;99.90;;;;;;4834603;29;20355;-84
2023/12/14 07:20:56;;;;;;;7.88;3.15;;;4.40;99.90;;;;;;4835619;29;20094;-80
2023/12/14 07:23:21;;;;;;;8.13;2.95;;;4.20;99.90;;;;;;4831412;29;20036;-84
2023/12/14 07:25:47;;;;;;;8.73;3.17;;;4.30;99.90;;;;;;4835638;29;20038;-84
2023/12/14 07:28:13;;;;;;;7.75;2.95;;;4.40;99.90;;;;;;4835676;29;20041;-84
2023/12/14 07:30:38;;;;;;;8.98;3.22;;;4.30;99.90;;;;;;4833703;29;20387;-83
2023/12/14 07:33:04;;;;;;;8.02;2.65;;;4.40;99.90;;;;;;4834054;29;20095;-85
2023/12/14 07:35:30;;;;;;;8.20;2.63;;;4.30;99.90;;;;;;4834302;29;20042;-83
2023/12/14 07:37:55;;;;;;;7.20;2.83;;;4.20;99.90;;;;;;4849327;29;20026;-82
2023/12/14 07:40:21;;;;;;;9.10;3.78;;;4.10;99.90;;;;;;4845329;29;20029;-83
2023/12/14 07:42:47;;;;;;;7.50;3.35;;;4.10;99.90;;;;;;4847914;29;20033;-83
2023/12/14 07:45:12;;;;;;;10.13;3.20;;;4.10;99.90;;;;;;4852347;29;20045;-84
2023/12/14 07:47:39;;;;;;;11.13;3.08;;;4.10;99.90;;;;;;4828459;29;20496;-83
2023/12/14 07:50:05;;;;;;;12.65;3.70;;;4.10;99.90;;;;;;4826901;29;20144;-83
2023/12/14 07:52:31;;;;;;;14.00;3.75;;;4.20;99.90;;;;;;4830491;29;20272;-83
2023/12/14 07:54:56;;;;;;;9.52;3.83;;;4.20;99.90;;;;;;4836304;29;20432;-83
2023/12/14 07:57:23;;;;;;;9.52;3.33;;;4.20;99.90;;;;;;4834571;29;20577;-84
2023/12/14 07:59:49;;;;;;;9.95;3.85;;;4.30;99.90;;;;;;4829983;29;20104;-82
2023/12/14 08:02:15;;;;;;;15.30;3.90;;;4.30;99.90;;;;;;4827025;29;20124;-83
2023/12/14 08:04:40;;;;;;;11.70;4.25;;;4.30;99.90;;;;;;4828855;29;20073;-83
2023/12/14 08:07:06;;;;;;;8.00;3.50;;;4.40;99.90;;;;;;4823660;29;20065;-85
2023/12/14 08:09:33;;;;;;;12.15;3.35;;;4.40;99.90;;;;;;4819144;29;20066;-84
2023/12/14 08:11:58;;;;;;;6.88;3.20;;;4.50;99.90;;;;;;4816470;29;20042;-81
2023/12/14 08:14:24;;;;;;;6.32;3.35;;;4.60;99.90;;;;;;4828354;29;21824;-81
2023/12/14 08:16:49;;;;;;;5.68;2.80;;;4.70;99.90;;;;;;4830017;29;20490;-80
2023/12/14 08:19:15;;;;;;;7.43;2.95;;;4.60;99.90;;;;;;4827347;29;20295;-80
2023/12/14 08:21:41;;;;;;;6.60;2.83;;;4.50;99.90;;;;;;4821525;29;20375;-80
2023/12/14 08:24:07;;;;;;;9.15;3.35;;;4.60;99.90;;;;;;4821171;29;20044;-80
2023/12/14 08:26:32;;;;;;;6.97;2.35;;;4.70;99.90;;;;;;4823678;29;20483;-79
2023/12/14 08:28:58;;;;;;;8.38;3.20;;;4.70;99.90;;;;;;4824420;29;20854;-82
2023/12/14 08:31:25;;;;;;;6.30;3.05;;;4.70;99.90;;;;;;4821041;29;20038;-79
2023/12/14 08:33:52;;;;;;;9.20;3.00;;;4.70;99.90;;;;;;4826013;29;20070;-92
2023/12/14 08:36:18;;;;;;;10.90;3.35;;;4.80;99.90;;;;;;4835711;29;20044;-92
2023/12/14 08:38:44;;;;;;;6.43;3.25;;;4.70;99.90;;;;;;4834018;29;20160;-89
2023/12/14 08:41:30;;;;;;;9.98;4.32;;;4.80;99.90;;;;;;4831535;29;20060;-91
2023/12/14 08:43:58;;;;;;;9.25;4.00;;;4.60;99.90;;;;;;4832765;29;20033;-91
2023/12/14 08:46:24;;;;;;;10.25;3.40;;;4.50;99.90;;;;;;4832405;29;20065;-87
2023/12/14 08:48:50;;;;;;;10.38;3.53;;;4.60;99.90;;;;;;4802318;29;20841;-91
2023/12/14 08:51:15;;;;;;;7.43;3.20;;;4.60;99.90;;;;;;4790624;29;20081;-87
2023/12/14 08:53:41;;;;;;;7.82;3.40;;;4.60;99.90;;;;;;4785964;29;20620;-89
2023/12/14 08:56:08;;;;;;;8.68;3.50;;;4.60;99.90;;;;;;4777989;29;20299;-85
2023/12/14 08:58:34;;;;;;;10.88;3.75;;;4.50;99.90;;;;;;4788279;29;20064;-88
2023/12/14 09:01:00;;;;;;;9.80;3.50;;;4.50;99.90;;;;;;4806254;29;20080;-85
2023/12/14 09:03:26;;;;;;;12.05;3.65;;;4.70;99.90;;;;;;4833094;29;20105;-88
2023/12/14 09:05:52;;;;;;;13.38;3.80;;;4.70;99.90;;;;;;4829230;29;20069;-88
2023/12/14 09:08:17;;;;;;;9.52;3.65;;;4.70;99.90;;;;;;4826652;29;20041;-85
2023/12/14 09:10:44;;;;;;;12.93;3.92;;;4.70;99.90;;;;;;4821990;29;20279;-86
2023/12/14 09:13:10;;;;;;;13.18;4.32;;;4.80;99.90;;;;;;4829106;29;20101;-84
2023/12/14 09:15:36;;;;;;;9.20;3.80;;;4.90;99.90;;;;;;4831384;29;20045;-89
2023/12/14 09:18:02;;;;;;;11.68;3.53;;;4.90;99.90;;;;;;4827854;29;20222;-87
2023/12/14 09:20:28;;;;;;;9.10;3.40;;;4.90;99.90;;;;;;4822147;29;21097;-88
2023/12/14 09:22:53;;;;;;;12.82;4.50;;;5.00;99.90;;;;;;4822364;29;20152;-87
2023/12/14 09:25:33;;;;;;;10.45;4.10;;;5.20;99.90;;;;;;4819877;29;20541;-84
2023/12/14 09:27:58;;;;;;;9.45;3.47;;;5.30;99.90;;;;;;4829274;29;20284;-88
2023/12/14 09:30:24;;;;;;;8.45;3.35;;;5.50;99.90;;;;;;4840364;29;20064;-88
2023/12/14 09:32:49;;;;;;;9.30;3.50;;;5.60;99.90;;;;;;4828823;29;20022;-89
2023/12/14 09:35:15;;;;;;;8.93;3.55;;;5.70;99.90;;;;;;4831371;29;20474;-84
2023/12/14 09:37:41;;;;;;;7.60;3.47;;;5.70;99.90;;;;;;4851690;29;20030;-90
2023/12/14 09:40:08;;;;;;;5.97;2.42;;;5.60;99.90;;;;;;4856040;29;20048;-90
2023/12/14 09:42:39;;;;;;;6.03;2.90;;;5.60;99.90;;;;;;4858431;29;20273;-87
2023/12/14 09:45:07;;;;;;;5.28;2.30;;;5.60;99.90;;;;;;4844702;29;20037;-83
2023/12/14 09:47:32;;;;;;;4.82;2.58;;;5.70;99.90;;;;;;4826027;29;20361;-88
2023/12/14 09:49:59;;;;;;;6.50;2.58;;;5.60;99.90;;;;;;4829911;29;20385;-88
2023/12/14 09:52:25;;;;;;;7.00;2.97;;;5.70;99.90;;;;;;4827992;29;20062;-91
2023/12/14 09:54:51;;;;;;;6.40;2.50;;;5.80;99.90;;;;;;4832554;29;20381;-88
2023/12/14 09:57:18;;;;;;;6.30;2.58;;;5.80;99.90;;;;;;4831688;29;20030;-84
2023/12/14 09:59:52;;;;;;;7.32;2.72;;;5.80;99.90;;;;;;4836057;29;20040;-84
2023/12/14 10:02:18;;;;;;;4.75;1.90;;;5.90;99.90;;;;;;4820463;29;20497;-86
2023/12/14 10:04:44;;;;;;;4.32;1.90;;;5.90;99.90;;;;;;4828240;29;20045;-87
2023/12/14 10:07:10;;;;;;;7.68;2.30;;;6.00;99.90;;;;;;4828536;29;20033;-90
2023/12/14 10:09:37;;;;;;;7.13;2.97;;;5.90;99.90;;;;;;4827170;29;20092;-89
2023/12/14 10:12:06;;;;;;;7.10;2.50;;;6.00;99.90;;;;;;4826046;29;20037;-89
2023/12/14 10:14:32;;;;;;;5.90;2.38;;;6.20;99.90;;;;;;4829306;29;20021;-88
2023/12/14 10:16:58;;;;;;;5.35;2.38;;;6.20;99.90;;;;;;4828224;29;20044;-85
2023/12/14 10:19:24;;;;;;;5.50;1.83;;;6.20;99.90;;;;;;4826439;29;20034;-87
2023/12/14 10:21:50;;;;;;;4.97;1.80;;;6.00;99.90;;;;;;4834243;29;20033;-89
2023/12/14 10:24:17;;;;;;;7.82;1.80;;;6.00;99.90;;;;;;4825727;29;21554;-84
2023/12/14 10:26:47;;;;;;;5.85;1.52;;;5.90;99.90;;;;;;4828479;29;20041;-89
2023/12/14 10:29:13;;;;;;;3.78;1.70;;;5.90;99.90;;;;;;4829026;29;20580;-89
2023/12/14 10:31:39;;;;;;;4.35;1.65;;;5.90;99.90;;;;;;4823490;29;20124;-82
2023/12/14 10:34:05;;;;;;;5.70;1.95;;;5.80;99.90;;;;;;4823565;29;20554;-82
2023/12/14 10:36:31;;;;;;;5.55;1.80;;;5.90;99.90;;;;;;4821311;29;20106;-82
2023/12/14 10:38:59;;;;;;;4.35;1.70;;;6.10;99.90;;;;;;4816399;29;20089;-81
2023/12/14 10:41:26;;;;;;;5.47;2.10;;;6.10;99.90;;;;;;4822088;29;20048;-85
2023/12/14 10:43:54;;;;;;;6.57;1.80;;;6.10;99.90;;;;;;4818783;29;20132;-79
2023/12/14 10:46:20;;;;;;;4.43;2.30;;;6.10;99.90;;;;;;4824801;29;20168;-80
2023/12/14 10:48:49;;;;;;;7.57;2.30;;;6.20;99.90;;;;;;4818946;29;20400;-80
2023/12/14 10:51:17;;;;;;;7.15;2.30;;;6.10;99.90;;;;;;4824365;29;20438;-81
2023/12/14 10:53:47;;;;;;;7.88;2.63;;;6.10;99.90;;;;;;4826600;29;20136;-84
2023/12/14 10:56:13;;;;;;;5.90;2.00;;;6.10;99.90;;;;;;4827480;29;20025;-84
2023/12/14 10:58:56;;;;;;;3.92;1.80;;;6.10;99.90;;;;;;4824466;29;20067;-82
2023/12/14 11:01:24;;;;;;;6.68;2.33;;;6.10;99.90;;;;;;4823974;29;20124;-81
2023/12/14 11:03:53;;;;;;;5.93;2.15;;;6.10;99.90;;;;;;4826052;29;20713;-84
2023/12/14 11:06:30;;;;;;;5.72;1.90;;;6.10;99.90;;;;;;4827890;29;20105;-85
2023/12/14 11:08:59;;;;;;;4.45;1.90;;;6.10;99.90;;;;;;4825183;29;20373;-83
2023/12/14 11:11:29;;;;;;;4.13;2.28;;;6.10;99.90;;;;;;4821702;29;20045;-81
2023/12/14 11:13:55;;;;;;;2.63;1.80;;;6.10;99.90;;;;;;4827587;29;20168;-88
2023/12/14 11:16:22;;;;;;;7.05;2.38;;;6.20;99.90;;;;;;4828055;29;20101;-86
2023/12/14 11:18:48;;;;;;;3.10;1.92;;;6.20;99.90;;;;;;4825819;29;20732;-83
2023/12/14 11:21:22;;;;;;;4.93;2.30;;;6.20;99.90;;;;;;4827385;29;20120;-83
2023/12/14 11:23:50;;;;;;;6.55;2.65;;;6.30;99.90;;;;;;4831005;29;20053;-81
2023/12/14 11:26:22;;;;;;;5.47;2.22;;;6.30;99.90;;;;;;4829495;29;20398;-80
2023/12/14 11:28:48;;;;;;;5.45;2.40;;;6.40;99.90;;;;;;4827287;29;21147;-82
2023/12/14 11:31:14;;;;;;;7.07;2.70;;;6.50;99.90;;;;;;4827692;29;20261;-79
2023/12/14 11:33:40;;;;;;;7.38;2.75;;;6.50;99.90;;;;;;4834812;29;20036;-81
2023/12/14 11:36:08;;;;;;;7.97;3.10;;;6.50;99.90;;;;;;4857441;29;20021;-81
2023/12/14 11:38:34;;;;;;;9.27;3.25;;;6.50;99.90;;;;;;4861331;29;20222;-82
2023/12/14 11:41:00;;;;;;;5.78;2.30;;;6.50;99.90;;;;;;4854451;29;20045;-82
2023/12/14 11:43:26;;;;;;;6.55;2.55;;;6.60;99.90;;;;;;4834963;29;20758;-83
2023/12/14 11:45:57;;;;;;;6.82;2.90;;;6.60;99.90;;;;;;4831781;29;20025;-80
2023/12/14 11:48:23;;;;;;;5.78;2.85;;;6.60;99.90;;;;;;4827773;29;20056;-80
2023/12/14 11:50:48;;;;;;;6.43;2.88;;;6.60;99.90;;;;;;4818758;29;20482;-83
2023/12/14 11:53:14;;;;;;;6.30;2.85;;;6.60;99.90;;;;;;4825546;29;20088;-85
2023/12/14 11:55:41;;;;;;;6.00;2.67;;;6.60;99.90;;;;;;4825742;29;20064;-85
2023/12/14 11:58:08;;;;;;;7.57;4.15;;;6.60;99.90;;;;;;4824048;29;21064;-81
2023/12/14 12:00:37;;;;;;;5.10;2.38;;;6.60;99.90;;;;;;4829761;29;20418;-84
2023/12/14 12:03:12;;;;;;;5.93;2.90;;;6.60;99.90;;;;;;4831752;29;20037;-82
2023/12/14 12:05:41;;;;;;;8.15;3.20;;;6.50;99.90;;;;;;4830651;29;20544;-84
2023/12/14 12:08:08;;;;;;;8.75;2.55;;;6.40;99.90;;;;;;4825560;29;20042;-84
2023/12/14 12:10:34;;;;;;;5.50;2.70;;;6.40;99.90;;;;;;4823733;29;20114;-84
2023/12/14 12:13:02;;;;;;;8.00;2.70;;;6.50;99.90;;;;;;4833136;29;20695;-87
2023/12/14 12:15:28;;;;;;;7.47;2.97;;;6.40;99.90;;;;;;4826414;29;20061;-86
2023/12/14 12:17:53;;;;;;;7.43;2.80;;;6.50;99.90;;;;;;4836049;29;20120;-89
2023/12/14 12:20:19;;;;;;;8.10;3.80;;;6.70;99.90;;;;;;4825455;29;20044;-83
2023/12/14 12:22:45;;;;;;;5.93;2.72;;;6.90;99.90;;;;;;4821011;29;20042;-86
2023/12/14 12:25:10;;;;;;;10.70;2.88;;;7.20;99.90;;;;;;4822900;29;20224;-87
2023/12/14 12:27:36;;;;;;;8.57;2.45;;;7.30;99.90;;;;;;4820412;29;20157;-84
2023/12/14 12:30:02;;;;;;;9.00;2.88;;;7.20;99.90;;;;;;4811173;29;20094;-84
2023/12/14 12:32:28;;;;;;;9.52;2.70;;;7.10;99.90;;;;;;4817533;29;20521;-83
2023/12/14 12:34:55;;;;;;;6.68;2.35;;;7.10;99.90;;;;;;4811023;29;20044;-85
2023/12/14 12:37:21;;;;;;;5.63;2.40;;;7.20;99.90;;;;;;4818388;29;20482;-83
2023/12/14 12:39:46;;;;;;;5.88;2.30;;;7.10;99.90;;;;;;4817121;29;20287;-85
2023/12/14 12:42:12;;;;;;;5.47;2.10;;;7.10;99.90;;;;;;4818836;29;20045;-88
2023/12/14 12:44:38;;;;;;;6.78;2.40;;;7.10;99.90;;;;;;4824190;29;20030;-84
2023/12/14 12:47:04;;;;;;;7.10;2.38;;;7.10;99.90;;;;;;4831467;29;20042;-83
2023/12/14 12:49:30;;;;;;;8.65;2.45;;;7.10;99.90;;;;;;4834249;29;20041;-87